Time;durP1;ratioP1;P1;durP2;ratioP2;P2;SDS_P1;SDS_P2;PMS_P1;PMS_P2;Temp;Humidity;BMP_temperature;BMP_pressure;BME280_temperature;BME280_humidity;BME280_pressure;Samples;Min_cycle;Max_cycle;Signal;HPM_P1;HPM_P2
2023/01/01 00:00:10;;;;;;;0.77;0.77;;;;;;;2.14;100.00;98948.97;5038719;28;20040;-75
2023/01/01 00:02:36;;;;;;;0.40;0.40;;;;;;;2.15;100.00;98955.09;5054982;28;20048;-75
2023/01/01 00:05:02;;;;;;;0.50;0.50;;;;;;;2.12;100.00;98960.72;5038503;28;20047;-74
2023/01/01 00:07:28;;;;;;;0.50;0.50;;;;;;;2.14;100.00;98951.63;5054770;28;20039;-76
2023/01/01 00:12:38;;;;;;;0.50;0.50;;;;;;;2.42;100.00;98961.88;5057641;28;20541;-75
2023/01/01 00:15:04;;;;;;;0.40;0.40;;;;;;;2.63;100.00;98971.94;5038350;28;20162;-76
2023/01/01 00:17:30;;;;;;;0.47;0.47;;;;;;;2.77;100.00;98973.06;5038464;28;20036;-75
2023/01/01 00:19:55;;;;;;;0.50;0.50;;;;;;;2.92;100.00;98968.72;5054904;28;20382;-76
2023/01/01 00:22:21;;;;;;;0.50;0.50;;;;;;;3.15;100.00;98978.59;5038640;28;20056;-75
2023/01/01 00:24:47;;;;;;;0.50;0.50;;;;;;;3.34;100.00;98978.19;5038402;28;20047;-75
2023/01/01 00:27:12;;;;;;;0.45;0.45;;;;;;;3.49;100.00;98979.13;5038470;28;20028;-74
2023/01/01 00:29:38;;;;;;;0.50;0.50;;;;;;;3.63;100.00;98971.41;5074965;28;20025;-75
2023/01/01 00:32:04;;;;;;;0.40;0.40;;;;;;;3.69;100.00;98971.53;5058558;28;20039;-75
2023/01/01 00:34:29;;;;;;;0.40;0.40;;;;;;;3.83;100.00;98977.91;5042017;28;20037;-75
2023/01/01 00:36:56;;;;;;;0.50;0.50;;;;;;;3.90;100.00;98989.50;5058448;28;20051;-75
2023/01/01 00:39:22;;;;;;;0.40;0.40;;;;;;;3.97;100.00;98979.00;5041912;28;20055;-75
2023/01/01 00:41:47;;;;;;;0.50;0.50;;;;;;;4.01;100.00;98977.63;5074689;28;20481;-75
2023/01/01 00:44:13;;;;;;;0.50;0.50;;;;;;;4.04;100.00;98979.13;5041924;28;20037;-75
2023/01/01 00:46:39;;;;;;;0.40;0.40;;;;;;;4.09;100.00;98987.41;5075018;28;20047;-75
2023/01/01 00:49:04;;;;;;;0.50;0.50;;;;;;;4.12;100.00;98987.84;5041817;28;20029;-75
2023/01/01 00:51:30;;;;;;;0.40;0.40;;;;;;;4.23;100.00;98991.09;5041595;28;20044;-75
2023/01/01 00:53:56;;;;;;;0.50;0.50;;;;;;;4.28;100.00;98997.53;5041568;28;20166;-75
2023/01/01 00:56:21;;;;;;;0.40;0.40;;;;;;;4.40;100.00;98995.31;5074512;28;20056;-75
2023/01/01 00:58:47;;;;;;;0.40;0.40;;;;;;;4.48;100.00;98994.41;5057764;28;20032;-75
2023/01/01 01:01:13;;;;;;;0.40;0.40;;;;;;;4.53;100.00;98994.69;5074489;28;20379;-75
2023/01/01 01:03:39;;;;;;;0.50;0.50;;;;;;;4.57;100.00;98995.97;5058133;28;20391;-75
2023/01/01 01:06:04;;;;;;;0.40;0.40;;;;;;;4.64;100.00;99004.91;5041119;28;20037;-74
2023/01/01 01:08:35;;;;;;;0.40;0.40;;;;;;;4.55;100.00;98977.53;5074716;28;20036;-75
2023/01/01 01:11:28;;;;;;;0.40;0.40;;;;;;;4.69;100.00;98994.53;5058034;28;20040;-75
2023/01/01 01:13:55;;;;;;;0.40;0.40;;;;;;;4.62;100.00;98989.09;5057298;28;20080;-74
2023/01/01 01:16:30;;;;;;;0.50;0.50;;;;;;;4.69;100.00;98993.72;5041215;28;20115;-75
2023/01/01 01:18:59;;;;;;;0.50;0.50;;;;;;;4.66;100.00;98986.06;5025395;28;20127;-74
2023/01/01 01:21:26;;;;;;;0.50;0.50;;;;;;;4.66;100.00;98986.06;5057824;28;20116;-75
2023/01/01 01:23:53;;;;;;;0.50;0.50;;;;;;;4.47;100.00;98980.25;5057145;28;20382;-76
2023/01/01 01:26:24;;;;;;;0.50;0.50;;;;;;;4.33;100.00;98986.38;5057592;28;20417;-76
2023/01/01 01:28:51;;;;;;;0.40;0.40;;;;;;;4.16;100.00;98991.00;5074111;28;20375;-76
2023/01/01 01:31:23;;;;;;;0.50;0.50;;;;;;;4.00;100.00;98986.63;5057051;28;20032;-74
2023/01/01 01:33:49;;;;;;;0.50;0.50;;;;;;;4.08;100.00;99005.19;5040993;28;20133;-75
2023/01/01 01:36:16;;;;;;;0.50;0.50;;;;;;;4.16;100.00;98996.31;5073887;28;20048;-75
2023/01/01 01:38:42;;;;;;;0.40;0.40;;;;;;;4.16;100.00;99004.31;5056739;28;20055;-75
2023/01/01 01:41:08;;;;;;;0.40;0.40;;;;;;;4.19;100.00;98993.31;5040244;28;20386;-75
2023/01/01 01:43:34;;;;;;;0.50;0.50;;;;;;;4.17;100.00;99005.94;5057312;28;20036;-74
2023/01/01 01:46:05;;;;;;;0.50;0.50;;;;;;;4.04;100.00;99005.72;5074548;28;20471;-74
2023/01/01 01:48:37;;;;;;;0.50;0.50;;;;;;;3.77;100.00;98991.91;5040824;28;20025;-76
2023/01/01 01:51:03;;;;;;;0.50;0.50;;;;;;;3.69;100.00;99010.56;5073868;28;20074;-75
2023/01/01 01:53:33;;;;;;;0.50;0.50;;;;;;;3.57;100.00;99002.16;5057012;28;20039;-75
2023/01/01 01:56:00;;;;;;;0.50;0.50;;;;;;;3.62;100.00;99012.28;5040462;28;20040;-76
2023/01/01 01:58:28;;;;;;;0.47;0.47;;;;;;;3.54;100.00;99005.16;5056880;28;20111;-74
2023/01/01 02:00:54;;;;;;;0.50;0.50;;;;;;;3.60;100.00;99004.50;5023978;28;20028;-74
2023/01/01 02:03:32;;;;;;;0.50;0.50;;;;;;;3.63;100.00;99004.13;5040589;28;20120;-74
2023/01/01 02:05:58;;;;;;;0.50;0.50;;;;;;;3.59;100.00;98997.50;5073175;28;20036;-75
2023/01/01 02:08:25;;;;;;;0.50;0.50;;;;;;;3.56;100.00;99011.13;5056486;28;20035;-74
2023/01/01 02:10:51;;;;;;;0.50;0.50;;;;;;;3.53;100.00;99007.00;5056351;28;20035;-75
2023/01/01 02:13:18;;;;;;;0.50;0.50;;;;;;;3.49;100.00;99007.50;5056928;28;20032;-74
2023/01/01 02:15:52;;;;;;;0.50;0.50;;;;;;;3.50;100.00;99004.69;5039900;28;20029;-75
2023/01/01 02:18:23;;;;;;;0.45;0.45;;;;;;;3.44;100.00;99009.84;5056705;28;20467;-74
2023/01/01 02:21:04;;;;;;;0.50;0.50;;;;;;;3.35;100.00;99014.38;5072676;28;20044;-74
2023/01/01 02:23:51;;;;;;;0.50;0.50;;;;;;;3.26;100.00;99018.09;5073153;28;20458;-74
2023/01/01 02:26:51;;;;;;;0.50;0.50;;;;;;;3.09;100.00;99025.25;5039534;28;20055;-74
2023/01/01 02:29:24;;;;;;;0.50;0.50;;;;;;;2.94;100.00;99019.84;5073138;28;20035;-75
2023/01/01 02:32:19;;;;;;;0.40;0.40;;;;;;;2.81;100.00;99024.84;5055846;28;20033;-75
2023/01/01 02:34:57;;;;;;;0.50;0.50;;;;;;;2.53;100.00;99014.56;5026022;28;20037;-74
2023/01/01 02:37:24;;;;;;;0.50;0.50;;;;;;;2.59;100.00;99031.63;5072857;28;20121;-74
2023/01/01 02:39:54;;;;;;;0.50;0.50;;;;;;;2.51;100.00;99018.38;5039743;28;20036;-75
2023/01/01 02:42:22;;;;;;;0.85;0.85;;;;;;;2.52;100.00;99034.16;5072390;28;20036;-75
2023/01/01 02:44:49;;;;;;;0.40;0.40;;;;;;;2.39;100.00;99034.63;5039531;28;20037;-73
2023/01/01 02:47:18;;;;;;;0.50;0.50;;;;;;;2.42;100.00;99036.97;5055965;28;20390;-73
2023/01/01 02:49:49;;;;;;;0.50;0.50;;;;;;;2.43;100.00;99043.09;5056159;28;20119;-75
2023/01/01 02:52:35;;;;;;;0.55;0.55;;;;;;;2.35;100.00;99035.94;5055752;28;20090;-74
2023/01/01 02:55:20;;;;;;;0.50;0.50;;;;;;;2.33;100.00;99043.28;5039518;28;20506;-74
2023/01/01 02:57:52;;;;;;;0.50;0.50;;;;;;;2.18;100.00;99040.44;5073014;28;20032;-74
2023/01/01 03:00:18;;;;;;;0.82;0.82;;;;;;;2.01;100.00;99032.59;5072588;28;20077;-74
2023/01/01 03:03:02;;;;;;;0.40;0.40;;;;;;;1.90;100.00;99036.41;5072171;28;20505;-74
2023/01/01 03:05:30;;;;;;;0.60;0.60;;;;;;;1.83;100.00;99024.81;5056007;28;20032;-73
2023/01/01 03:08:02;;;;;;;0.50;0.50;;;;;;;1.87;100.00;99045.50;5071963;28;20064;-76
2023/01/01 03:10:31;;;;;;;0.40;0.40;;;;;;;1.71;100.00;99043.63;5073141;28;20394;-73
2023/01/01 03:13:07;;;;;;;0.50;0.50;;;;;;;1.58;100.00;99037.13;5055500;28;20390;-74
2023/01/01 03:15:44;;;;;;;0.43;0.43;;;;;;;1.35;100.00;99018.34;5073520;28;20479;-74
2023/01/01 03:18:18;;;;;;;0.40;0.40;;;;;;;1.49;100.00;99060.13;5055811;28;20043;-74
2023/01/01 03:20:46;;;;;;;0.50;0.50;;;;;;;1.44;100.00;99054.47;5055703;28;20036;-74
2023/01/01 03:23:15;;;;;;;0.50;0.50;;;;;;;1.27;100.00;99041.16;5039012;28;20090;-74
2023/01/01 03:25:52;;;;;;;0.40;0.40;;;;;;;1.36;100.00;99055.28;5055608;28;20089;-75
2023/01/01 03:28:23;;;;;;;0.50;0.50;;;;;;;1.40;100.00;99051.28;5055351;28;20061;-74
2023/01/01 03:30:49;;;;;;;0.50;0.50;;;;;;;1.48;100.00;99050.50;5039236;28;20032;-74
2023/01/01 03:33:21;;;;;;;0.47;0.47;;;;;;;1.51;100.00;99044.91;5072098;28;20032;-74
2023/01/01 03:36:08;;;;;;;0.50;0.50;;;;;;;1.56;100.00;99055.84;5055667;28;20037;-74
2023/01/01 03:38:41;;;;;;;0.50;0.50;;;;;;;1.53;100.00;99057.00;5055229;28;20064;-74
2023/01/01 03:41:12;;;;;;;0.50;0.50;;;;;;;1.55;100.00;99051.53;5072139;28;20020;-74
2023/01/01 03:43:37;;;;;;;0.50;0.50;;;;;;;1.63;100.00;99062.16;5055043;28;20123;-74
2023/01/01 03:46:04;;;;;;;0.40;0.40;;;;;;;1.72;100.00;99050.63;5055508;28;20558;-74
2023/01/01 03:48:54;;;;;;;0.50;0.50;;;;;;;1.84;100.00;99045.00;5055331;28;20033;-73
2023/01/01 03:51:39;;;;;;;0.50;0.50;;;;;;;1.91;100.00;99038.91;5058141;28;20043;-74
2023/01/01 03:54:43;;;;;;;0.45;0.45;;;;;;;2.08;100.00;99044.22;5055006;28;20375;-75
2023/01/01 03:57:38;;;;;;;0.50;0.50;;;;;;;2.13;100.00;99045.38;5032598;28;20048;-74
2023/01/01 04:00:07;;;;;;;0.50;0.50;;;;;;;2.11;100.00;99028.00;5055307;28;20032;-74
2023/01/01 04:02:47;;;;;;;0.50;0.50;;;;;;;2.26;100.00;99036.13;5055830;28;20085;-75
2023/01/01 04:05:13;;;;;;;0.50;0.50;;;;;;;2.29;100.00;99036.63;5042537;28;20108;-74
2023/01/01 04:07:39;;;;;;;0.50;0.50;;;;;;;2.26;100.00;99034.31;5075344;28;20534;-74
2023/01/01 04:10:15;;;;;;;0.40;0.40;;;;;;;2.32;100.00;99046.91;5042328;28;20044;-74
2023/01/01 04:12:49;;;;;;;0.50;0.50;;;;;;;2.32;100.00;99041.59;5075654;28;20075;-74
2023/01/01 04:15:17;;;;;;;0.43;0.43;;;;;;;2.38;100.00;99045.41;5042260;28;20032;-74
2023/01/01 04:17:43;;;;;;;0.40;0.40;;;;;;;2.33;100.00;99037.97;5025976;28;20071;-74
2023/01/01 04:20:10;;;;;;;0.50;0.50;;;;;;;2.38;100.00;99040.94;5042104;28;20060;-74
2023/01/01 04:22:35;;;;;;;0.50;0.50;;;;;;;2.46;100.00;99042.78;5058422;28;20044;-75
2023/01/01 04:25:01;;;;;;;0.60;0.60;;;;;;;2.49;100.00;99029.19;5042295;28;20032;-74
2023/01/01 04:27:27;;;;;;;0.50;0.50;;;;;;;2.60;100.00;99042.09;5058488;28;20493;-74
2023/01/01 04:29:53;;;;;;;0.50;0.50;;;;;;;2.67;100.00;99038.78;5074852;28;20029;-74
2023/01/01 04:32:18;;;;;;;0.50;0.50;;;;;;;2.76;100.00;99043.91;5058423;28;20033;-75
2023/01/01 04:34:46;;;;;;;0.50;0.50;;;;;;;2.77;100.00;99042.09;5058820;28;20040;-74
2023/01/01 04:37:12;;;;;;;0.50;0.50;;;;;;;2.81;100.00;99046.06;5042060;28;20501;-74
2023/01/01 04:39:38;;;;;;;0.50;0.50;;;;;;;2.79;100.00;99053.38;5042053;28;20036;-74
2023/01/01 04:42:04;;;;;;;0.50;0.50;;;;;;;2.83;100.00;99054.66;5058280;28;20082;-74
2023/01/01 04:44:29;;;;;;;0.50;0.50;;;;;;;2.88;100.00;99047.03;5058116;28;20032;-75
2023/01/01 04:46:55;;;;;;;0.50;0.50;;;;;;;2.93;100.00;99046.53;5074512;28;20059;-74
2023/01/01 04:49:21;;;;;;;0.50;0.50;;;;;;;2.91;100.00;99049.38;5042007;28;20036;-75
2023/01/01 04:51:47;;;;;;;0.50;0.50;;;;;;;3.00;100.00;99061.63;5041894;28;20498;-75
2023/01/01 04:54:13;;;;;;;0.50;0.50;;;;;;;3.07;100.00;99059.13;5074832;28;20032;-74
2023/01/01 04:56:38;;;;;;;0.50;0.50;;;;;;;3.17;100.00;99061.59;5058081;28;20448;-76
2023/01/01 04:59:04;;;;;;;0.50;0.50;;;;;;;3.24;100.00;99068.72;5058172;28;20501;-75
2023/01/01 05:01:30;;;;;;;0.55;0.55;;;;;;;3.34;100.00;99057.91;5057588;28;20029;-79
2023/01/01 05:03:57;;;;;;;0.40;0.40;;;;;;;3.38;100.00;99059.19;5058026;28;20482;-75
2023/01/01 05:06:23;;;;;;;0.50;0.50;;;;;;;3.29;100.00;99045.13;5058048;28;20028;-75
2023/01/01 05:08:49;;;;;;;0.50;0.50;;;;;;;3.41;100.00;99064.16;5041493;28;20037;-75
2023/01/01 05:11:23;;;;;;;0.40;0.40;;;;;;;3.38;100.00;99064.50;5074511;28;20117;-77
2023/01/01 05:13:52;;;;;;;0.50;0.50;;;;;;;3.44;100.00;99065.66;5041171;28;20192;-75
2023/01/01 05:16:20;;;;;;;0.50;0.50;;;;;;;3.39;100.00;99062.72;5041442;28;20036;-75
2023/01/01 05:18:46;;;;;;;0.50;0.50;;;;;;;3.44;100.00;99063.00;5057291;28;20032;-75
2023/01/01 05:21:14;;;;;;;0.50;0.50;;;;;;;3.41;100.00;99056.19;5057233;28;20028;-75
2023/01/01 05:23:40;;;;;;;0.43;0.43;;;;;;;3.43;100.00;99059.50;5074300;28;20043;-77
2023/01/01 05:26:15;;;;;;;0.40;0.40;;;;;;;3.51;100.00;99064.78;5073934;28;20387;-78
2023/01/01 05:28:41;;;;;;;0.40;0.40;;;;;;;3.51;100.00;99064.78;5074076;28;20021;-78
2023/01/01 05:31:12;;;;;;;0.60;0.60;;;;;;;3.48;100.00;99062.50;5040901;28;20127;-77
2023/01/01 05:33:38;;;;;;;0.40;0.40;;;;;;;3.55;100.00;99067.09;5057579;28;20029;-77
2023/01/01 05:36:06;;;;;;;0.50;0.50;;;;;;;3.53;100.00;99065.47;5074351;28;20024;-77
2023/01/01 05:38:31;;;;;;;0.50;0.50;;;;;;;3.50;100.00;99057.84;5057019;28;20482;-77
2023/01/01 05:40:57;;;;;;;0.50;0.50;;;;;;;3.56;100.00;99066.94;5041059;28;20117;-76
2023/01/01 05:43:23;;;;;;;0.50;0.50;;;;;;;3.57;100.00;99059.78;5074090;28;20044;-76
2023/01/01 05:45:57;;;;;;;0.40;0.40;;;;;;;3.58;100.00;99064.13;5057355;28;20112;-76
2023/01/01 05:48:23;;;;;;;0.50;0.50;;;;;;;3.54;100.00;99060.97;5073792;28;20078;-76
2023/01/01 05:50:55;;;;;;;0.50;0.50;;;;;;;3.65;100.00;99073.06;5056872;28;20020;-76
2023/01/01 05:53:20;;;;;;;0.50;0.50;;;;;;;3.66;100.00;99069.41;5041452;28;20040;-76
2023/01/01 05:55:52;;;;;;;0.50;0.50;;;;;;;3.68;100.00;99081.53;5040617;28;20395;-76
2023/01/01 05:58:22;;;;;;;0.47;0.47;;;;;;;3.70;100.00;99078.69;5057039;28;20029;-76
2023/01/01 06:00:48;;;;;;;0.50;0.50;;;;;;;3.72;100.00;99085.47;5040534;28;20036;-76
2023/01/01 06:03:14;;;;;;;0.50;0.50;;;;;;;3.72;100.00;99088.13;5056564;28;20085;-76
2023/01/01 06:05:39;;;;;;;0.40;0.40;;;;;;;3.73;100.00;99099.59;5040632;28;20120;-76
2023/01/01 06:08:05;;;;;;;0.50;0.50;;;;;;;3.66;100.00;99082.69;5040207;28;20459;-74
2023/01/01 06:10:31;;;;;;;0.40;0.40;;;;;;;3.74;100.00;99103.94;5073360;28;20382;-75
2023/01/01 06:12:57;;;;;;;0.50;0.50;;;;;;;3.69;100.00;99101.78;5040394;28;20036;-75
2023/01/01 06:15:24;;;;;;;0.50;0.50;;;;;;;3.70;100.00;99110.56;5057112;28;20430;-75
2023/01/01 06:17:50;;;;;;;0.50;0.50;;;;;;;3.61;100.00;99099.16;5056491;28;20032;-77
2023/01/01 06:20:18;;;;;;;0.40;0.40;;;;;;;3.63;100.00;99104.31;5056499;28;20040;-74
2023/01/01 06:22:44;;;;;;;0.50;0.50;;;;;;;3.70;100.00;99121.22;5072858;28;20381;-75
2023/01/01 06:25:11;;;;;;;0.50;0.50;;;;;;;3.58;100.00;99110.13;5056025;28;20119;-76
2023/01/01 06:27:36;;;;;;;0.50;0.50;;;;;;;3.65;100.00;99124.41;5039751;28;20127;-76
2023/01/01 06:30:06;;;;;;;0.50;0.50;;;;;;;3.66;100.00;99127.88;5072714;28;20102;-76
2023/01/01 06:32:32;;;;;;;0.50;0.50;;;;;;;3.64;100.00;99127.22;5073085;28;20036;-74
2023/01/01 06:34:58;;;;;;;0.47;0.47;;;;;;;3.66;100.00;99134.03;5056305;28;20033;-77
2023/01/01 06:37:24;;;;;;;0.47;0.47;;;;;;;3.65;100.00;99132.38;5039554;28;20036;-77
2023/01/01 06:39:50;;;;;;;0.50;0.50;;;;;;;3.70;100.00;99143.28;5039747;28;20022;-77
2023/01/01 06:42:16;;;;;;;0.47;0.47;;;;;;;3.63;100.00;99142.34;5056006;28;20051;-76
2023/01/01 06:44:41;;;;;;;0.50;0.50;;;;;;;3.70;100.00;99153.09;5039702;28;20036;-76
2023/01/01 06:47:07;;;;;;;0.50;0.50;;;;;;;3.63;100.00;99149.50;5056199;28;20028;-77
2023/01/01 06:49:35;;;;;;;0.50;0.50;;;;;;;3.71;100.00;99158.25;5039567;28;20419;-78
2023/01/01 06:52:01;;;;;;;0.40;0.40;;;;;;;3.77;100.00;99161.25;5056091;28;20028;-76
2023/01/01 06:54:26;;;;;;;0.40;0.40;;;;;;;3.72;100.00;99162.56;5039555;28;20175;-76
2023/01/01 06:56:52;;;;;;;0.40;0.40;;;;;;;3.79;100.00;99167.22;5039692;28;20068;-77
2023/01/01 06:59:18;;;;;;;0.40;0.40;;;;;;;3.75;100.00;99167.53;5039554;28;20036;-74
2023/01/01 07:01:43;;;;;;;0.40;0.40;;;;;;;3.80;100.00;99172.34;5073057;28;20107;-77
2023/01/01 07:04:14;;;;;;;0.40;0.40;;;;;;;3.81;100.00;99170.50;5072138;28;20425;-77
2023/01/01 07:06:42;;;;;;;0.50;0.50;;;;;;;3.81;100.00;99171.38;5056263;28;20112;-77
2023/01/01 07:09:08;;;;;;;0.50;0.50;;;;;;;3.84;100.00;99180.84;5039322;28;20067;-76
2023/01/01 07:11:34;;;;;;;0.50;0.50;;;;;;;3.79;100.00;99173.38;5056025;28;20087;-77
2023/01/01 07:14:01;;;;;;;0.50;0.50;;;;;;;3.84;100.00;99181.66;5022825;28;20048;-77
2023/01/01 07:16:27;;;;;;;0.50;0.50;;;;;;;3.87;100.00;99194.59;5039063;28;20032;-77
2023/01/01 07:18:53;;;;;;;0.40;0.40;;;;;;;3.88;100.00;99192.78;5055899;28;20034;-76
2023/01/01 07:21:33;;;;;;;0.40;0.40;;;;;;;3.87;100.00;99191.94;5039073;28;20070;-77
2023/01/01 07:24:01;;;;;;;0.50;0.50;;;;;;;3.88;100.00;99190.94;5072296;28;20086;-77
2023/01/01 07:26:28;;;;;;;0.50;0.50;;;;;;;3.92;100.00;99191.44;5071904;28;20466;-76
2023/01/01 07:28:54;;;;;;;0.52;0.52;;;;;;;3.88;100.00;99195.44;5055663;28;20037;-74
2023/01/01 07:31:20;;;;;;;0.50;0.50;;;;;;;3.87;100.00;99193.78;5038786;28;20030;-77
2023/01/01 07:33:46;;;;;;;0.40;0.40;;;;;;;3.82;100.00;99193.47;5055409;28;20033;-75
2023/01/01 07:36:14;;;;;;;0.50;0.50;;;;;;;3.76;100.00;99194.97;5039728;28;20060;-75
2023/01/01 07:38:47;;;;;;;0.50;0.50;;;;;;;3.76;100.00;99200.28;5041834;28;20052;-76
2023/01/01 07:41:16;;;;;;;0.50;0.50;;;;;;;3.74;100.00;99202.28;5059559;28;20032;-78
2023/01/01 07:43:45;;;;;;;0.40;0.40;;;;;;;3.70;100.00;99200.94;5076076;28;20093;-76
2023/01/01 07:46:17;;;;;;;0.40;0.40;;;;;;;3.56;100.00;99183.88;5075742;28;20078;-76
2023/01/01 07:49:24;;;;;;;0.40;0.40;;;;;;;3.71;100.00;99200.78;5059728;28;20111;-76
2023/01/01 07:51:49;;;;;;;0.40;0.40;;;;;;;3.77;100.00;99212.56;5059366;28;20036;-76
2023/01/01 07:54:15;;;;;;;0.50;0.50;;;;;;;3.82;100.00;99220.88;5076276;28;20040;-76
2023/01/01 07:56:41;;;;;;;0.40;0.40;;;;;;;3.78;100.00;99226.69;5059420;28;20029;-76
2023/01/01 07:59:06;;;;;;;0.50;0.50;;;;;;;3.79;100.00;99231.84;5059549;28;20063;-76
2023/01/01 08:01:37;;;;;;;0.50;0.50;;;;;;;3.72;100.00;99222.88;5042798;28;20040;-76
2023/01/01 08:04:03;;;;;;;0.40;0.40;;;;;;;3.82;100.00;99241.31;5043025;28;20036;-75
2023/01/01 08:06:29;;;;;;;0.50;0.50;;;;;;;3.82;100.00;99239.47;5042579;28;20028;-76
2023/01/01 08:08:55;;;;;;;0.50;0.50;;;;;;;3.83;100.00;99241.13;5058911;28;20050;-75
2023/01/01 08:11:20;;;;;;;0.40;0.40;;;;;;;3.68;100.00;99224.25;5042554;28;20034;-76
2023/01/01 08:13:46;;;;;;;0.40;0.40;;;;;;;3.76;100.00;99253.47;5042701;28;20043;-76
2023/01/01 08:16:12;;;;;;;0.50;0.50;;;;;;;3.68;100.00;99250.81;5042552;28;20040;-76
2023/01/01 08:18:37;;;;;;;0.40;0.40;;;;;;;3.72;100.00;99260.09;5058930;28;20024;-75
2023/01/01 08:21:04;;;;;;;0.40;0.40;;;;;;;3.75;100.00;99260.59;5075422;28;20087;-76
2023/01/01 08:23:33;;;;;;;0.40;0.40;;;;;;;3.73;100.00;99259.09;5075149;28;20094;-76
2023/01/01 08:26:00;;;;;;;0.50;0.50;;;;;;;3.77;100.00;99263.09;5042173;28;20056;-76
2023/01/01 08:28:27;;;;;;;0.50;0.50;;;;;;;3.81;100.00;99264.44;5042283;28;20032;-76
2023/01/01 08:30:53;;;;;;;0.40;0.40;;;;;;;3.85;100.00;99272.88;5058180;28;20025;-78
2023/01/01 08:33:18;;;;;;;0.40;0.40;;;;;;;3.77;100.00;99262.25;5042251;28;20036;-76
2023/01/01 08:35:44;;;;;;;0.50;0.50;;;;;;;3.88;100.00;99283.19;5058923;28;20145;-76
2023/01/01 08:38:10;;;;;;;0.50;0.50;;;;;;;3.88;100.00;99281.34;5058440;28;20033;-76
2023/01/01 08:40:36;;;;;;;0.50;0.50;;;;;;;3.89;100.00;99275.03;5058421;28;20098;-76
2023/01/01 08:43:02;;;;;;;0.50;0.50;;;;;;;3.96;100.00;99280.50;5058281;28;20398;-77
2023/01/01 08:45:28;;;;;;;0.50;0.50;;;;;;;3.97;100.00;99283.00;5075062;28;20146;-76
2023/01/01 08:47:56;;;;;;;0.43;0.43;;;;;;;3.99;100.00;99289.97;5041305;28;20535;-77
2023/01/01 08:50:22;;;;;;;0.50;0.50;;;;;;;3.98;100.00;99294.47;5057940;28;20024;-77
2023/01/01 08:52:47;;;;;;;0.40;0.40;;;;;;;3.95;100.00;99292.16;5057714;28;20094;-75
2023/01/01 08:55:13;;;;;;;0.50;0.50;;;;;;;4.00;100.00;99304.94;5058297;28;20374;-76
2023/01/01 08:57:39;;;;;;;0.40;0.40;;;;;;;4.01;100.00;99298.63;5058097;28;20036;-76
2023/01/01 09:00:08;;;;;;;0.40;0.40;;;;;;;3.98;100.00;99299.78;5041078;28;20066;-75
2023/01/01 09:02:33;;;;;;;0.50;0.50;;;;;;;3.92;100.00;99301.28;5058600;28;20025;-75
2023/01/01 09:04:59;;;;;;;0.50;0.50;;;;;;;3.95;100.00;99314.25;5057969;28;20044;-75
2023/01/01 09:07:25;;;;;;;0.40;0.40;;;;;;;3.96;100.00;99315.88;5041375;28;20036;-75
2023/01/01 09:09:50;;;;;;;0.50;0.50;;;;;;;3.94;100.00;99306.41;5041167;28;20471;-76
2023/01/01 09:12:16;;;;;;;0.50;0.50;;;;;;;3.84;100.00;99311.13;5057586;28;20063;-76
2023/01/01 09:14:47;;;;;;;0.40;0.40;;;;;;;3.94;100.00;99333.00;5039258;28;20398;-77
2023/01/01 09:17:13;;;;;;;0.45;0.45;;;;;;;3.96;100.00;99334.50;5023830;28;20142;-76
2023/01/01 09:19:39;;;;;;;0.40;0.40;;;;;;;3.99;100.00;99338.66;5022728;28;20040;-76
2023/01/01 09:22:12;;;;;;;0.40;0.40;;;;;;;4.01;100.00;99341.16;5039309;28;20028;-76
2023/01/01 09:24:41;;;;;;;0.50;0.50;;;;;;;4.09;100.00;99352.63;5038688;28;20028;-76
2023/01/01 09:27:06;;;;;;;0.50;0.50;;;;;;;4.28;100.00;99363.88;5071640;28;20032;-76
2023/01/01 09:29:32;;;;;;;0.50;0.50;;;;;;;4.52;100.00;99365.66;5040885;28;20028;-75
2023/01/01 09:31:58;;;;;;;0.50;0.50;;;;;;;4.73;100.00;99367.75;5073874;28;20024;-75
2023/01/01 09:34:23;;;;;;;0.50;0.50;;;;;;;4.96;100.00;99379.31;5040934;28;20036;-75
2023/01/01 09:36:49;;;;;;;0.50;0.50;;;;;;;5.07;100.00;99383.44;5057639;28;20036;-75
2023/01/01 09:39:15;;;;;;;0.40;0.40;;;;;;;5.12;100.00;99388.25;5057595;28;20031;-75
2023/01/01 09:41:40;;;;;;;0.50;0.50;;;;;;;5.15;100.00;99393.22;5073653;28;20050;-75
2023/01/01 09:44:43;;;;;;;0.50;0.50;;;;;;;5.17;100.00;99399.22;5057461;28;20113;-75
2023/01/01 09:47:36;;;;;;;0.50;0.50;;;;;;;5.04;100.00;99402.44;5073066;28;20562;-77
2023/01/01 09:50:11;;;;;;;0.50;0.50;;;;;;;4.98;100.00;99408.47;5057364;28;20041;-76
2023/01/01 09:52:57;;;;;;;0.40;0.40;;;;;;;5.08;100.00;99417.06;5024803;28;20044;-75
2023/01/01 09:55:52;;;;;;;0.50;0.50;;;;;;;5.20;100.00;99428.16;5025309;28;20033;-75
2023/01/01 09:58:24;;;;;;;0.50;0.50;;;;;;;5.22;100.00;99424.31;5039648;28;20047;-76
2023/01/01 10:00:53;;;;;;;0.50;0.50;;;;;;;5.28;100.00;99436.13;5022455;28;20119;-75
2023/01/01 10:03:32;;;;;;;0.40;0.40;;;;;;;5.26;100.00;99419.47;5040153;28;20032;-76
2023/01/01 10:06:19;;;;;;;0.50;0.50;;;;;;;5.38;100.00;99449.25;5040302;28;20497;-75
2023/01/01 10:09:03;;;;;;;0.43;0.43;;;;;;;5.35;100.00;99449.59;5074491;28;20056;-75
2023/01/01 10:11:56;;;;;;;0.40;0.40;;;;;;;5.28;100.00;99444.94;5073532;28;20032;-75
2023/01/01 10:14:42;;;;;;;0.50;0.50;;;;;;;5.27;100.00;99459.28;5056917;28;20130;-75
2023/01/01 10:17:17;;;;;;;0.50;0.50;;;;;;;5.23;100.00;99459.78;5056681;28;20230;-77
2023/01/01 10:19:47;;;;;;;0.47;0.47;;;;;;;5.28;100.00;99463.59;5056514;28;20114;-77
2023/01/01 10:22:19;;;;;;;0.50;0.50;;;;;;;5.33;100.00;99462.25;5040408;28;20463;-77
2023/01/01 10:24:55;;;;;;;0.40;0.40;;;;;;;5.42;100.00;99463.88;5072938;28;20029;-77
2023/01/01 10:27:27;;;;;;;0.50;0.50;;;;;;;5.45;100.00;99463.50;5056535;28;20016;-77
2023/01/01 10:29:53;;;;;;;0.50;0.50;;;;;;;5.64;100.00;99473.75;5074085;28;20556;-78
2023/01/01 10:32:29;;;;;;;0.50;0.50;;;;;;;5.71;100.00;99471.22;5056470;28;20100;-76
2023/01/01 10:34:56;;;;;;;0.50;0.50;;;;;;;5.78;100.00;99477.50;5039853;28;20478;-77
2023/01/01 10:37:22;;;;;;;0.40;0.40;;;;;;;5.77;100.00;99475.00;5039935;28;20097;-77
2023/01/01 10:39:47;;;;;;;0.50;0.50;;;;;;;5.79;100.00;99478.34;5055923;28;20032;-76
2023/01/01 10:42:14;;;;;;;0.50;0.50;;;;;;;5.86;100.00;99497.97;5072420;28;20036;-77
2023/01/01 10:44:41;;;;;;;0.50;0.50;;;;;;;5.89;100.00;99508.28;5039778;28;20032;-76
2023/01/01 10:47:24;;;;;;;0.40;0.40;;;;;;;5.81;100.00;99513.66;5022799;28;20036;-77
2023/01/01 10:50:01;;;;;;;0.50;0.50;;;;;;;5.77;100.00;99510.53;5056527;28;20045;-76
2023/01/01 10:52:37;;;;;;;0.40;0.40;;;;;;;5.88;100.00;99520.78;5056341;28;20116;-76
2023/01/01 10:55:04;;;;;;;0.50;0.50;;;;;;;5.97;100.00;99524.28;5072755;28;20154;-77
2023/01/01 10:57:32;;;;;;;0.40;0.40;;;;;;;6.02;100.00;99521.91;5056280;28;20054;-77
2023/01/01 11:00:25;;;;;;;0.40;0.40;;;;;;;6.19;100.00;99517.28;5055880;28;20116;-77
2023/01/01 11:03:09;;;;;;;0.50;0.50;;;;;;;6.38;100.00;99527.50;5056228;28;20032;-77
2023/01/01 11:05:35;;;;;;;0.43;0.43;;;;;;;6.46;100.00;99515.09;5055851;28;20039;-77
2023/01/01 11:08:01;;;;;;;0.50;0.50;;;;;;;6.76;100.00;99529.34;5039192;28;20029;-76
2023/01/01 11:10:30;;;;;;;0.50;0.50;;;;;;;7.02;100.00;99539.63;5039097;28;20174;-77
2023/01/01 11:12:55;;;;;;;0.40;0.40;;;;;;;7.37;100.00;99537.22;5072409;28;20036;-77
2023/01/01 11:15:30;;;;;;;0.50;0.50;;;;;;;7.52;100.00;99534.56;5039174;28;20119;-77
2023/01/01 11:18:13;;;;;;;0.50;0.50;;;;;;;7.94;100.00;99541.88;5023776;28;20036;-78
2023/01/01 11:20:39;;;;;;;0.40;0.40;;;;;;;7.85;100.00;99542.97;5055489;28;20071;-77
2023/01/01 11:23:32;;;;;;;0.50;0.50;;;;;;;7.55;100.00;99548.38;5055687;28;20024;-77
2023/01/01 11:26:18;;;;;;;0.50;0.50;;;;;;;7.44;100.00;99549.69;5069401;28;20123;-78
2023/01/01 11:29:21;;;;;;;0.50;0.50;;;;;;;7.38;100.00;99542.41;5055458;28;20036;-77
2023/01/01 11:31:47;;;;;;;0.40;0.40;;;;;;;7.48;100.00;99550.94;5044910;28;20044;-77
2023/01/01 11:34:28;;;;;;;0.50;0.50;;;;;;;7.40;100.00;99553.72;5055565;28;20085;-78
2023/01/01 11:37:32;;;;;;;0.50;0.50;;;;;;;7.08;100.00;99557.59;5055120;28;20056;-78
2023/01/01 11:40:00;;;;;;;0.50;0.50;;;;;;;6.92;100.00;99558.56;4998637;28;20045;-77
2023/01/01 11:42:28;;;;;;;0.50;0.50;;;;;;;7.10;100.00;99565.44;5045332;28;20041;-77
2023/01/01 11:44:57;;;;;;;0.50;0.50;;;;;;;7.26;100.00;99570.59;5071779;28;20032;-77
2023/01/01 11:47:40;;;;;;;0.40;0.40;;;;;;;7.21;100.00;99560.44;5071574;28;20056;-78
2023/01/01 11:50:28;;;;;;;0.50;0.50;;;;;;;7.17;100.00;99571.69;5022663;28;20082;-78